Time;durP1;ratioP1;P1;durP2;ratioP2;P2;SDS_P1;SDS_P2;PMS_P1;PMS_P2;Temp;Humidity;BMP_temperature;BMP_pressure;BME280_temperature;BME280_humidity;BME280_pressure;Samples;Min_cycle;Max_cycle;Signal;HPM_P1;HPM_P2
2022/12/03 05:01:40;;;;;;;53.60;21.33;;;4.50;99.90;;;;;;5440981;23;21009;-74
2022/12/03 05:04:07;;;;;;;48.83;20.20;;;4.50;99.90;;;;;;4946840;28;20456;-74
2022/12/03 05:06:34;;;;;;;47.83;21.10;;;4.50;99.90;;;;;;4947250;28;20807;-74
2022/12/03 05:09:01;;;;;;;54.00;21.80;;;4.50;99.90;;;;;;4950987;29;20449;-74
2022/12/03 05:11:28;;;;;;;46.47;20.27;;;4.60;99.90;;;;;;4950690;29;20481;-74
2022/12/03 05:13:55;;;;;;;50.43;21.53;;;4.50;99.90;;;;;;4949254;28;20464;-74
2022/12/03 05:16:21;;;;;;;45.30;20.13;;;4.60;99.90;;;;;;4950415;28;20812;-74
2022/12/03 05:18:49;;;;;;;44.87;20.47;;;4.60;99.90;;;;;;4950167;28;21020;-74
2022/12/03 05:21:16;;;;;;;49.60;21.20;;;4.50;99.90;;;;;;4949520;28;20473;-74
2022/12/03 05:23:43;;;;;;;48.60;19.07;;;4.60;99.90;;;;;;4950945;28;20809;-74
2022/12/03 05:26:10;;;;;;;47.87;22.03;;;4.60;99.90;;;;;;4952088;28;20461;-74
2022/12/03 05:28:37;;;;;;;46.13;20.63;;;4.50;99.90;;;;;;4951557;28;20942;-74
2022/12/03 05:31:04;;;;;;;48.27;20.83;;;4.50;99.90;;;;;;4951384;28;20477;-74
2022/12/03 05:33:31;;;;;;;49.67;20.73;;;4.60;99.90;;;;;;4951095;28;20511;-74
2022/12/03 05:35:59;;;;;;;49.63;19.90;;;4.60;99.90;;;;;;4951332;28;20457;-74
2022/12/03 05:38:26;;;;;;;48.80;21.10;;;4.60;99.90;;;;;;4950897;28;20501;-74
2022/12/03 05:40:53;;;;;;;48.57;19.93;;;4.60;99.90;;;;;;4951334;28;20465;-74
2022/12/03 05:43:18;;;;;;;56.50;22.17;;;4.60;99.90;;;;;;4950985;28;20457;-73
2022/12/03 05:45:45;;;;;;;55.03;21.90;;;4.50;99.90;;;;;;4951635;28;20823;-74
2022/12/03 05:48:14;;;;;;;51.07;21.13;;;4.60;99.90;;;;;;4951055;28;20218;-74
2022/12/03 05:50:43;;;;;;;49.70;21.70;;;4.60;99.90;;;;;;4950883;28;20862;-74
2022/12/03 05:53:11;;;;;;;45.47;20.67;;;4.50;99.90;;;;;;4950397;28;20454;-74
2022/12/03 05:55:38;;;;;;;46.00;21.27;;;4.50;99.90;;;;;;4950663;28;20877;-74
2022/12/03 05:58:05;;;;;;;58.80;22.33;;;4.50;99.90;;;;;;4950924;28;20841;-74
2022/12/03 06:00:36;;;;;;;48.17;20.87;;;4.50;99.90;;;;;;4951236;28;20461;-74
2022/12/03 06:03:04;;;;;;;58.00;23.27;;;4.60;99.90;;;;;;4950658;28;20438;-74
2022/12/03 06:05:31;;;;;;;54.53;21.40;;;4.60;99.90;;;;;;4950948;28;20528;-74
2022/12/03 06:07:57;;;;;;;51.10;22.73;;;4.50;99.90;;;;;;4951044;28;20453;-74
2022/12/03 06:10:26;;;;;;;49.40;19.53;;;4.50;99.90;;;;;;4950441;28;20952;-74
2022/12/03 06:12:53;;;;;;;54.23;21.37;;;4.50;99.90;;;;;;4949816;28;20446;-74
2022/12/03 06:15:20;;;;;;;48.93;19.80;;;4.60;99.90;;;;;;4950754;28;20449;-74
2022/12/03 06:17:47;;;;;;;47.53;19.33;;;4.60;99.90;;;;;;4950582;28;20477;-74
2022/12/03 06:20:16;;;;;;;51.10;20.80;;;4.70;99.90;;;;;;4949715;28;20457;-74
2022/12/03 06:22:43;;;;;;;56.47;22.37;;;4.60;99.90;;;;;;4949899;28;20463;-74
2022/12/03 06:25:10;;;;;;;55.50;22.30;;;4.60;99.90;;;;;;4950376;28;20458;-74
2022/12/03 06:27:38;;;;;;;49.43;21.50;;;4.60;99.90;;;;;;4950032;28;21457;-74
2022/12/03 06:30:07;;;;;;;45.50;19.57;;;4.60;99.90;;;;;;4950582;28;20548;-74
2022/12/03 06:32:34;;;;;;;46.07;20.20;;;4.60;99.90;;;;;;4949655;28;21036;-74
2022/12/03 06:35:01;;;;;;;57.10;22.63;;;4.60;99.90;;;;;;4950174;28;20464;-74
2022/12/03 06:37:28;;;;;;;50.10;20.30;;;4.60;99.90;;;;;;4950073;28;21010;-74
2022/12/03 06:39:54;;;;;;;46.67;21.00;;;4.60;99.90;;;;;;4949926;28;21314;-74
2022/12/03 06:42:21;;;;;;;51.10;21.87;;;4.60;99.90;;;;;;4949104;28;21007;-74
2022/12/03 06:44:49;;;;;;;42.63;20.50;;;4.50;99.90;;;;;;4949957;28;21200;-76
2022/12/03 06:47:16;;;;;;;43.47;19.53;;;4.50;99.90;;;;;;4949888;28;20462;-74
2022/12/03 06:49:43;;;;;;;46.37;20.43;;;4.50;99.90;;;;;;4949742;28;20461;-74
2022/12/03 06:52:10;;;;;;;47.63;20.10;;;4.50;99.90;;;;;;4948617;28;20481;-76
2022/12/03 06:54:36;;;;;;;48.03;21.80;;;4.50;99.90;;;;;;4949190;28;20472;-75
2022/12/03 06:57:03;;;;;;;44.20;18.40;;;4.50;99.90;;;;;;4949294;28;21296;-79
2022/12/03 06:59:32;;;;;;;49.13;20.60;;;4.60;99.90;;;;;;4950573;28;20505;-79
2022/12/03 07:02:01;;;;;;;42.93;20.50;;;4.60;99.90;;;;;;4949379;28;20494;-79
2022/12/03 07:04:27;;;;;;;46.23;20.33;;;4.60;99.90;;;;;;4950841;28;20480;-78
2022/12/03 07:06:54;;;;;;;50.37;20.20;;;4.60;99.90;;;;;;4950179;28;20799;-78
2022/12/03 07:09:21;;;;;;;49.30;20.60;;;4.70;99.90;;;;;;4951115;28;20465;-79
2022/12/03 07:11:48;;;;;;;53.37;21.43;;;4.60;99.90;;;;;;4950673;28;20477;-80
2022/12/03 07:14:15;;;;;;;54.07;22.87;;;4.70;99.90;;;;;;4953059;28;20477;-79
2022/12/03 07:16:42;;;;;;;51.57;23.33;;;4.70;99.90;;;;;;4949834;28;20466;-80
2022/12/03 07:19:11;;;;;;;47.33;20.73;;;4.70;99.90;;;;;;4950019;28;20503;-79
2022/12/03 07:21:38;;;;;;;50.10;22.00;;;4.70;99.90;;;;;;4949630;28;20482;-80
2022/12/03 07:24:05;;;;;;;53.40;24.07;;;4.70;99.90;;;;;;4949748;28;20461;-78
2022/12/03 07:26:32;;;;;;;52.57;22.93;;;4.70;99.90;;;;;;4949755;28;20453;-79
2022/12/03 07:28:59;;;;;;;54.20;23.77;;;4.70;99.90;;;;;;4950672;28;20457;-79
2022/12/03 07:31:26;;;;;;;49.67;23.33;;;4.60;99.90;;;;;;4948549;28;20481;-79
2022/12/03 07:33:53;;;;;;;56.73;24.07;;;4.60;99.90;;;;;;4948396;28;20445;-69
2022/12/03 07:36:21;;;;;;;57.23;24.00;;;4.60;99.90;;;;;;4947908;28;20542;-70
2022/12/03 07:38:48;;;;;;;54.37;23.77;;;4.50;99.90;;;;;;4948229;28;20489;-68
2022/12/03 07:41:14;;;;;;;49.60;22.70;;;4.50;99.90;;;;;;4947760;28;20484;-68
2022/12/03 07:43:41;;;;;;;58.17;25.10;;;4.50;99.90;;;;;;4947278;28;20472;-70
2022/12/03 07:46:08;;;;;;;54.40;25.10;;;4.50;99.90;;;;;;4947743;28;20453;-69
2022/12/03 07:48:35;;;;;;;52.93;24.50;;;4.60;99.90;;;;;;4948335;28;20457;-79
2022/12/03 07:51:02;;;;;;;47.97;23.07;;;4.60;99.90;;;;;;4949316;28;20484;-79
2022/12/03 07:53:30;;;;;;;51.00;25.20;;;4.60;99.90;;;;;;4948984;28;20497;-80
2022/12/03 07:55:57;;;;;;;50.85;29.33;;;4.60;99.90;;;;;;4948740;28;20446;-79
2022/12/03 07:58:23;;;;;;;43.13;23.20;;;4.80;99.90;;;;;;4949052;28;20222;-79
2022/12/03 08:00:50;;;;;;;54.43;23.90;;;4.80;99.90;;;;;;4948427;28;20985;-78
2022/12/03 08:03:17;;;;;;;52.20;22.73;;;4.80;99.90;;;;;;4948053;28;20449;-79
2022/12/03 08:05:44;;;;;;;50.53;23.43;;;4.80;99.90;;;;;;4948713;28;20462;-79
2022/12/03 08:08:10;;;;;;;48.27;22.73;;;4.80;99.90;;;;;;4949424;28;20457;-81
2022/12/03 08:10:39;;;;;;;51.60;24.00;;;4.70;99.90;;;;;;4951424;28;20476;-81
2022/12/03 08:13:12;;;;;;;48.83;23.20;;;4.70;99.90;;;;;;4949798;28;20842;-79
2022/12/03 08:15:39;;;;;;;50.17;24.30;;;4.70;99.90;;;;;;4949755;28;20437;-79
2022/12/03 08:18:13;;;;;;;52.80;22.70;;;4.70;99.90;;;;;;4950513;28;20946;-80
2022/12/03 08:20:42;;;;;;;48.83;22.63;;;4.70;99.90;;;;;;4951329;28;20500;-80
2022/12/03 08:23:13;;;;;;;43.80;21.50;;;4.70;99.90;;;;;;4949906;28;20512;-79
2022/12/03 08:25:42;;;;;;;43.23;20.27;;;4.60;99.90;;;;;;4949737;28;20961;-79
2022/12/03 08:28:14;;;;;;;43.60;22.40;;;4.60;99.90;;;;;;4949866;28;20465;-80
2022/12/03 08:30:42;;;;;;;48.27;22.63;;;4.70;99.90;;;;;;4947093;28;20470;-78
2022/12/03 08:33:27;;;;;;;50.13;22.53;;;4.70;99.90;;;;;;4948221;28;20468;-79
2022/12/03 08:35:54;;;;;;;42.10;21.17;;;4.70;99.90;;;;;;4949490;28;20794;-79
2022/12/03 08:38:23;;;;;;;43.33;21.60;;;4.60;99.90;;;;;;4950347;28;20611;-78
2022/12/03 08:40:54;;;;;;;45.67;21.50;;;4.60;99.90;;;;;;4950659;28;21231;-78
2022/12/03 08:43:22;;;;;;;48.63;22.17;;;4.60;99.90;;;;;;4957775;28;20456;-79
2022/12/03 08:45:50;;;;;;;40.67;19.07;;;4.70;99.90;;;;;;4973258;28;20462;-78
2022/12/03 08:48:35;;;;;;;45.07;21.00;;;4.70;99.90;;;;;;4973239;28;20456;-78
2022/12/03 08:51:08;;;;;;;39.10;20.50;;;4.70;99.90;;;;;;4972919;28;20487;-79
2022/12/03 08:53:37;;;;;;;39.23;20.20;;;4.70;99.90;;;;;;4972644;28;20539;-79
2022/12/03 08:56:19;;;;;;;38.00;18.13;;;4.70;99.90;;;;;;4973008;28;20983;-78
2022/12/03 08:58:48;;;;;;;39.73;19.63;;;4.70;99.90;;;;;;4972200;28;20460;-79
2022/12/03 09:01:29;;;;;;;38.73;19.30;;;4.70;99.90;;;;;;4973240;28;20484;-79
2022/12/03 09:03:59;;;;;;;31.30;17.90;;;4.70;99.90;;;;;;4971956;28;20441;-78
2022/12/03 09:06:25;;;;;;;39.27;19.90;;;4.70;99.90;;;;;;4967432;28;20460;-78
2022/12/03 09:08:52;;;;;;;44.97;20.33;;;4.70;99.90;;;;;;4972857;28;20453;-78
2022/12/03 09:11:20;;;;;;;39.07;20.20;;;4.70;99.90;;;;;;4972436;28;21126;-78
2022/12/03 09:13:48;;;;;;;42.00;20.90;;;4.60;99.90;;;;;;4971550;28;20457;-77
2022/12/03 09:16:14;;;;;;;44.90;21.50;;;4.60;99.90;;;;;;4972121;28;20460;-77
2022/12/03 09:18:41;;;;;;;39.30;20.53;;;4.60;99.90;;;;;;4971529;28;20452;-77
2022/12/03 09:21:08;;;;;;;37.33;20.60;;;4.60;99.90;;;;;;4971537;28;20487;-77
2022/12/03 09:23:35;;;;;;;37.90;20.03;;;4.60;99.90;;;;;;4970567;28;20460;-77
2022/12/03 09:26:01;;;;;;;40.13;21.57;;;4.60;99.90;;;;;;4970965;28;20463;-77
2022/12/03 09:28:30;;;;;;;38.93;20.00;;;4.60;99.90;;;;;;4971237;28;20471;-77
2022/12/03 09:30:56;;;;;;;39.37;19.97;;;4.60;99.90;;;;;;4970804;28;20845;-77
2022/12/03 09:33:23;;;;;;;40.63;18.97;;;4.60;99.90;;;;;;4969918;28;20468;-74
2022/12/03 09:35:50;;;;;;;35.60;18.50;;;4.50;99.90;;;;;;4952644;28;20989;-77
2022/12/03 09:38:17;;;;;;;35.40;18.73;;;4.50;99.90;;;;;;4969828;28;20456;-75
2022/12/03 09:40:44;;;;;;;37.20;18.83;;;4.50;99.90;;;;;;4969467;28;20499;-76
2022/12/03 09:43:11;;;;;;;36.03;19.30;;;4.50;99.90;;;;;;4970272;28;20465;-75
2022/12/03 09:45:39;;;;;;;37.73;19.50;;;4.50;99.90;;;;;;4970375;28;20482;-76
2022/12/03 09:48:06;;;;;;;35.17;18.80;;;4.50;99.90;;;;;;4969423;28;20479;-77
2022/12/03 09:50:33;;;;;;;40.20;19.40;;;4.50;99.90;;;;;;4969345;28;20459;-76
2022/12/03 09:53:03;;;;;;;36.00;19.03;;;4.50;99.90;;;;;;4968262;28;20452;-77
2022/12/03 09:55:30;;;;;;;37.40;19.60;;;4.40;99.90;;;;;;4970572;28;20468;-77
2022/12/03 09:57:59;;;;;;;37.80;17.83;;;4.40;99.90;;;;;;4975024;28;20471;-76
2022/12/03 10:00:28;;;;;;;36.53;19.23;;;4.40;99.90;;;;;;4969639;28;20567;-76
2022/12/03 10:02:59;;;;;;;35.77;18.27;;;4.30;99.90;;;;;;4968666;28;20933;-76
2022/12/03 10:05:26;;;;;;;39.90;19.17;;;4.30;99.90;;;;;;4968913;28;20547;-75
2022/12/03 10:07:53;;;;;;;38.37;20.07;;;4.30;99.90;;;;;;4970072;28;20452;-77
2022/12/03 10:10:22;;;;;;;43.20;21.10;;;4.40;99.90;;;;;;4969227;28;20458;-76
2022/12/03 10:12:50;;;;;;;38.03;19.83;;;4.30;99.90;;;;;;4968463;28;20460;-75
2022/12/03 10:15:19;;;;;;;39.33;20.50;;;4.30;99.90;;;;;;4968794;28;20456;-76
2022/12/03 10:17:47;;;;;;;40.03;20.50;;;4.30;99.90;;;;;;4969079;28;20851;-77
2022/12/03 10:20:18;;;;;;;39.87;20.40;;;4.30;99.90;;;;;;4969253;28;20860;-77
2022/12/03 10:22:47;;;;;;;40.50;21.20;;;4.30;99.90;;;;;;4969248;28;20444;-78
2022/12/03 10:25:16;;;;;;;41.40;21.50;;;4.40;99.90;;;;;;4969733;28;20489;-77
2022/12/03 10:27:43;;;;;;;39.00;21.00;;;4.40;99.90;;;;;;4969606;28;20467;-77
2022/12/03 10:30:18;;;;;;;43.20;21.63;;;4.40;99.90;;;;;;4968545;28;20460;-77
2022/12/03 10:32:47;;;;;;;47.80;22.43;;;4.40;99.90;;;;;;4967955;28;20523;-77
2022/12/03 10:35:19;;;;;;;43.90;22.07;;;4.40;99.90;;;;;;4968813;28;20464;-77
2022/12/03 10:38:00;;;;;;;40.23;21.40;;;4.40;99.90;;;;;;4968353;28;20456;-77
2022/12/03 10:40:29;;;;;;;45.13;21.93;;;4.40;99.90;;;;;;4968543;28;20496;-77
2022/12/03 10:43:15;;;;;;;37.40;20.20;;;4.40;99.90;;;;;;4967952;28;20483;-77
2022/12/03 10:45:42;;;;;;;39.67;21.03;;;4.40;99.90;;;;;;4968909;28;20437;-78
2022/12/03 10:48:14;;;;;;;36.40;19.37;;;4.50;99.90;;;;;;4968924;28;20482;-76
2022/12/03 10:50:53;;;;;;;38.53;20.20;;;4.50;99.90;;;;;;4968387;28;20473;-76
2022/12/03 10:53:21;;;;;;;42.73;20.70;;;4.50;99.90;;;;;;4968017;28;20456;-77
2022/12/03 10:55:51;;;;;;;39.90;20.60;;;4.50;99.90;;;;;;4968740;28;20455;-77
2022/12/03 10:58:22;;;;;;;37.30;19.83;;;4.60;99.90;;;;;;4968781;28;20500;-77
2022/12/03 11:00:50;;;;;;;40.30;19.03;;;4.50;99.90;;;;;;4968382;28;20496;-77
2022/12/03 11:03:19;;;;;;;35.10;18.50;;;4.50;99.90;;;;;;4967604;28;20465;-77
2022/12/03 11:05:46;;;;;;;37.73;18.50;;;4.60;99.90;;;;;;4968080;28;20841;-78
2022/12/03 11:08:20;;;;;;;31.73;16.80;;;4.50;99.90;;;;;;4968538;28;20449;-78
2022/12/03 11:10:56;;;;;;;34.40;17.00;;;4.50;99.90;;;;;;4970757;28;20476;-77
2022/12/03 11:13:47;;;;;;;35.30;16.87;;;4.50;99.90;;;;;;4970329;28;20537;-78
2022/12/03 11:16:34;;;;;;;33.43;17.60;;;4.60;99.90;;;;;;4970849;28;20457;-76
2022/12/03 11:19:16;;;;;;;34.37;16.30;;;4.60;99.90;;;;;;4970511;28;20452;-78
2022/12/03 11:22:25;;;;;;;30.43;17.13;;;4.60;99.90;;;;;;4969772;28;20481;-78
2022/12/03 11:25:50;;;;;;;38.47;17.03;;;4.60;99.90;;;;;;4970272;28;20441;-78
2022/12/03 11:28:52;;;;;;;32.80;16.43;;;4.50;99.90;;;;;;4969076;28;20480;-77
2022/12/03 11:31:46;;;;;;;34.47;15.93;;;4.50;99.90;;;;;;4970184;28;21199;-77
2022/12/03 11:34:42;;;;;;;37.03;16.50;;;4.50;99.90;;;;;;4970491;28;20500;-77
2022/12/03 11:37:26;;;;;;;32.40;16.10;;;4.40;99.90;;;;;;4889635;29;20495;-76
2022/12/03 11:40:26;;;;;;;36.87;16.33;;;4.40;99.90;;;;;;4958235;28;20603;-77
2022/12/03 11:42:53;;;;;;;30.60;15.50;;;4.40;99.90;;;;;;4967226;28;20466;-77
2022/12/03 11:45:41;;;;;;;37.30;18.73;;;4.50;99.90;;;;;;4937276;28;20523;-77
2022/12/03 11:48:13;;;;;;;37.23;17.00;;;4.50;99.90;;;;;;4967823;28;20455;-77
2022/12/03 11:50:42;;;;;;;33.83;16.90;;;4.50;99.90;;;;;;4967135;28;21090;-75
2022/12/03 11:53:15;;;;;;;34.13;17.90;;;4.50;99.90;;;;;;4967069;28;20460;-75
2022/12/03 11:55:47;;;;;;;37.73;17.73;;;4.60;99.90;;;;;;4967315;28;20452;-77
2022/12/03 11:58:17;;;;;;;35.70;17.67;;;4.60;99.90;;;;;;4966864;28;21300;-77
2022/12/03 12:00:49;;;;;;;34.60;17.70;;;4.60;99.90;;;;;;4969436;28;20507;-75
2022/12/03 12:03:27;;;;;;;39.70;18.23;;;4.50;99.90;;;;;;4968952;28;20445;-74
2022/12/03 12:06:04;;;;;;;36.07;17.03;;;4.50;99.90;;;;;;4969115;28;20445;-75
2022/12/03 12:08:33;;;;;;;37.77;17.93;;;4.50;99.90;;;;;;4968601;28;20447;-74
2022/12/03 12:11:17;;;;;;;40.23;18.37;;;4.50;99.90;;;;;;4968678;28;20564;-75
2022/12/03 12:13:54;;;;;;;43.13;17.97;;;4.50;99.90;;;;;;4968246;28;20809;-79
2022/12/03 12:16:42;;;;;;;33.60;15.93;;;4.50;99.90;;;;;;4968254;28;20793;-77
2022/12/03 12:19:29;;;;;;;34.50;16.53;;;4.50;99.90;;;;;;4968973;28;20445;-77
2022/12/03 12:21:56;;;;;;;34.87;17.30;;;4.50;99.90;;;;;;4966903;28;20480;-77
2022/12/03 12:24:45;;;;;;;32.90;17.60;;;4.40;99.90;;;;;;4967098;28;20844;-75
2022/12/03 12:27:16;;;;;;;35.37;17.83;;;4.40;99.90;;;;;;4924384;29;20485;-75
2022/12/03 12:29:46;;;;;;;35.87;17.10;;;4.40;99.90;;;;;;4929767;29;20530;-76
2022/12/03 12:32:15;;;;;;;38.83;17.80;;;4.30;99.90;;;;;;4927744;28;20517;-77
2022/12/03 12:34:43;;;;;;;34.30;16.83;;;4.30;99.90;;;;;;4928509;29;20462;-77
2022/12/03 12:37:12;;;;;;;43.07;18.07;;;4.30;99.90;;;;;;4930871;29;20461;-78
2022/12/03 12:39:40;;;;;;;33.17;15.40;;;4.40;99.90;;;;;;4931158;29;20465;-77
2022/12/03 12:42:25;;;;;;;34.40;16.50;;;4.30;99.90;;;;;;4931737;29;21608;-79
2022/12/03 12:44:53;;;;;;;33.57;15.80;;;4.30;99.90;;;;;;4944624;28;20455;-78
2022/12/03 12:47:19;;;;;;;40.10;18.77;;;4.40;99.90;;;;;;4970803;28;20452;-78
2022/12/03 12:49:46;;;;;;;34.93;17.03;;;4.40;99.90;;;;;;4970203;28;20457;-78
2022/12/03 12:52:14;;;;;;;36.47;18.40;;;4.40;99.90;;;;;;4970063;28;20481;-77
2022/12/03 12:54:41;;;;;;;39.80;18.07;;;4.40;99.90;;;;;;4970960;28;20460;-77
2022/12/03 12:57:13;;;;;;;41.77;18.30;;;4.40;99.90;;;;;;4970921;28;20463;-78
2022/12/03 12:59:41;;;;;;;40.67;17.63;;;4.40;99.90;;;;;;4971910;28;20449;-78
2022/12/03 13:02:39;;;;;;;36.57;18.43;;;4.40;99.90;;;;;;4970064;28;20492;-77
2022/12/03 13:05:09;;;;;;;37.23;18.40;;;4.40;99.90;;;;;;4970862;28;20453;-78
2022/12/03 13:07:36;;;;;;;37.03;17.03;;;4.40;99.90;;;;;;4968212;28;20448;-77
2022/12/03 13:10:24;;;;;;;46.00;20.93;;;4.40;99.90;;;;;;4966555;28;20450;-77
2022/12/03 13:12:51;;;;;;;38.60;17.97;;;4.40;99.90;;;;;;4965797;28;20461;-77
2022/12/03 13:15:38;;;;;;;36.40;17.37;;;4.40;99.90;;;;;;4966360;28;20464;-76
2022/12/03 13:18:20;;;;;;;35.17;17.10;;;4.30;99.90;;;;;;4962767;28;20453;-77
2022/12/03 13:20:47;;;;;;;35.93;16.20;;;4.30;99.90;;;;;;4941125;29;20552;-77
2022/12/03 13:23:28;;;;;;;36.37;16.73;;;4.40;99.90;;;;;;4946542;28;20823;-77
2022/12/03 13:25:57;;;;;;;38.50;18.30;;;4.40;99.90;;;;;;4947135;28;21187;-77
2022/12/03 13:28:24;;;;;;;38.47;17.37;;;4.30;99.90;;;;;;4948841;28;20468;-77
2022/12/03 13:30:52;;;;;;;42.30;17.10;;;4.30;99.90;;;;;;4950616;28;20493;-77
2022/12/03 13:33:25;;;;;;;38.20;19.97;;;4.30;99.90;;;;;;4951526;28;20786;-76
2022/12/03 13:35:53;;;;;;;41.47;18.17;;;4.30;99.90;;;;;;4951177;28;20495;-74
2022/12/03 13:38:22;;;;;;;41.80;18.77;;;4.20;99.90;;;;;;4950861;28;20962;-77
2022/12/03 13:41:01;;;;;;;43.10;18.00;;;4.30;99.90;;;;;;4950410;28;20501;-74
2022/12/03 13:43:31;;;;;;;40.70;18.07;;;4.30;99.90;;;;;;4949829;28;20441;-76
2022/12/03 13:46:00;;;;;;;51.43;21.20;;;4.30;99.90;;;;;;4952711;28;20480;-75
2022/12/03 13:48:30;;;;;;;42.10;19.30;;;4.30;99.90;;;;;;4969858;28;20459;-75
2022/12/03 13:51:01;;;;;;;42.23;21.10;;;4.30;99.90;;;;;;4969721;28;20472;-76
2022/12/03 13:53:32;;;;;;;47.13;21.40;;;4.20;99.90;;;;;;4968162;28;20440;-76
2022/12/03 13:56:20;;;;;;;46.37;19.90;;;4.20;99.90;;;;;;4968825;28;21242;-74
2022/12/03 13:58:47;;;;;;;44.40;19.90;;;4.20;99.90;;;;;;4969627;28;20437;-76
2022/12/03 14:01:15;;;;;;;54.37;20.43;;;4.20;99.90;;;;;;4968829;28;20527;-75
2022/12/03 14:03:42;;;;;;;40.70;17.80;;;4.20;99.90;;;;;;4968350;28;20460;-76
2022/12/03 14:06:09;;;;;;;40.70;18.90;;;4.20;99.90;;;;;;4969055;28;20461;-76
2022/12/03 14:08:36;;;;;;;47.20;18.13;;;4.10;99.90;;;;;;4968828;28;20457;-74
2022/12/03 14:11:02;;;;;;;39.50;17.80;;;4.10;99.90;;;;;;4960829;28;20477;-76
2022/12/03 14:13:29;;;;;;;41.73;18.87;;;4.10;99.90;;;;;;4948457;28;20450;-77
2022/12/03 14:15:56;;;;;;;31.23;14.60;;;4.10;99.90;;;;;;4947013;28;20465;-75
2022/12/03 14:18:24;;;;;;;39.20;16.90;;;4.10;99.90;;;;;;4947672;29;20829;-76
2022/12/03 14:20:51;;;;;;;39.20;16.40;;;4.10;99.90;;;;;;4950649;29;20501;-77
2022/12/03 14:23:18;;;;;;;43.63;18.30;;;4.10;99.90;;;;;;4952559;29;20981;-76
2022/12/03 14:25:45;;;;;;;47.27;20.50;;;4.10;99.90;;;;;;4951872;29;20514;-75
2022/12/03 14:28:11;;;;;;;39.63;18.90;;;4.00;99.90;;;;;;4951964;29;20468;-77
2022/12/03 14:30:38;;;;;;;41.87;19.90;;;4.00;99.90;;;;;;4952974;29;20479;-77
2022/12/03 14:33:05;;;;;;;38.10;17.47;;;4.00;99.90;;;;;;4949697;29;20487;-67
2022/12/03 14:35:33;;;;;;;34.80;14.37;;;3.90;99.90;;;;;;4949066;29;20457;-67
2022/12/03 14:38:00;;;;;;;38.67;16.80;;;3.90;99.90;;;;;;4948964;29;20454;-67
2022/12/03 14:40:27;;;;;;;36.50;16.33;;;4.00;99.90;;;;;;4951486;28;20494;-77
2022/12/03 14:42:54;;;;;;;37.63;14.93;;;3.90;99.90;;;;;;4952740;29;20453;-75
2022/12/03 14:45:21;;;;;;;34.30;15.90;;;3.90;99.90;;;;;;4954052;29;20828;-78
2022/12/03 14:47:50;;;;;;;26.33;13.67;;;3.90;99.90;;;;;;4955448;29;20454;-77
2022/12/03 14:50:18;;;;;;;34.57;15.00;;;3.90;99.90;;;;;;4957972;29;20466;-77
2022/12/03 14:52:46;;;;;;;27.20;12.30;;;3.90;99.90;;;;;;4952371;29;20457;-78
2022/12/03 14:55:13;;;;;;;30.10;14.20;;;4.00;99.90;;;;;;4953106;29;20458;-78
2022/12/03 14:57:40;;;;;;;37.67;17.73;;;4.00;99.90;;;;;;4950698;29;21170;-77
2022/12/03 15:00:10;;;;;;;33.67;15.90;;;3.90;99.90;;;;;;4951744;29;20481;-78
2022/12/03 15:02:37;;;;;;;37.90;17.23;;;4.00;99.90;;;;;;4952642;28;20485;-78
2022/12/03 15:05:04;;;;;;;33.70;15.07;;;4.00;99.90;;;;;;4953346;29;20461;-75
2022/12/03 15:07:31;;;;;;;31.50;14.67;;;3.90;99.90;;;;;;4952265;29;20444;-75
2022/12/03 15:09:59;;;;;;;35.70;15.80;;;3.90;99.90;;;;;;4947823;28;20516;-76
2022/12/03 15:12:26;;;;;;;35.63;15.97;;;3.90;99.90;;;;;;4947155;29;20474;-76
2022/12/03 15:14:53;;;;;;;32.43;15.13;;;3.80;99.90;;;;;;4947413;29;20457;-77
2022/12/03 15:17:20;;;;;;;32.53;17.57;;;3.80;99.90;;;;;;4947954;28;20472;-76
2022/12/03 15:19:47;;;;;;;37.87;16.80;;;3.80;99.90;;;;;;4950949;28;20972;-77
2022/12/03 15:22:13;;;;;;;32.13;15.10;;;3.80;99.90;;;;;;4948377;28;21079;-76
2022/12/03 15:24:40;;;;;;;28.17;14.23;;;3.80;99.90;;;;;;4950843;29;20763;-76
2022/12/03 15:27:08;;;;;;;29.23;13.93;;;3.70;99.90;;;;;;4947997;29;20536;-76
2022/12/03 15:29:35;;;;;;;30.30;14.30;;;3.70;99.90;;;;;;4947848;29;20465;-77
2022/12/03 15:32:02;;;;;;;32.37;14.73;;;3.60;99.90;;;;;;4948227;29;20474;-77
2022/12/03 15:34:28;;;;;;;33.97;15.23;;;3.60;99.90;;;;;;4946897;28;20465;-75
2022/12/03 15:36:55;;;;;;;35.07;15.00;;;3.60;99.90;;;;;;4948268;29;20977;-77
2022/12/03 15:39:22;;;;;;;35.53;15.33;;;3.60;99.90;;;;;;4950070;29;20477;-77
2022/12/03 15:41:49;;;;;;;33.87;15.27;;;3.60;99.90;;;;;;4948517;29;20498;-76
2022/12/03 15:44:17;;;;;;;31.83;15.33;;;3.60;99.90;;;;;;4950527;28;20455;-77
2022/12/03 15:46:44;;;;;;;28.80;15.20;;;3.60;99.90;;;;;;4947824;29;20549;-76
2022/12/03 15:49:11;;;;;;;35.43;16.23;;;3.60;99.90;;;;;;4948420;28;21037;-76
2022/12/03 15:51:37;;;;;;;32.13;17.23;;;3.60;99.90;;;;;;4946699;28;21028;-75
2022/12/03 15:54:05;;;;;;;32.57;16.63;;;3.60;99.90;;;;;;4947923;29;20458;-76
2022/12/03 15:56:36;;;;;;;34.73;16.17;;;3.60;99.90;;;;;;4948701;29;20457;-77
2022/12/03 15:59:03;;;;;;;30.37;14.50;;;3.70;99.90;;;;;;4948235;28;20958;-75
2022/12/03 16:01:31;;;;;;;29.13;16.90;;;3.60;99.90;;;;;;4947739;28;20532;-75
2022/12/03 16:03:58;;;;;;;34.60;16.43;;;3.60;99.90;;;;;;4946682;28;20836;-74
2022/12/03 16:06:24;;;;;;;30.27;16.23;;;3.60;99.90;;;;;;4947876;28;20456;-74
2022/12/03 16:08:51;;;;;;;31.10;15.03;;;3.60;99.90;;;;;;4947876;28;20507;-75
2022/12/03 16:11:18;;;;;;;33.77;16.00;;;3.60;99.90;;;;;;4947235;28;20585;-74
2022/12/03 16:13:45;;;;;;;29.53;15.03;;;3.60;99.90;;;;;;4945870;28;20541;-74
2022/12/03 16:16:11;;;;;;;36.83;18.20;;;3.60;99.90;;;;;;4947638;28;20946;-75
2022/12/03 16:18:40;;;;;;;33.90;16.57;;;3.60;99.90;;;;;;4947194;28;20965;-74
2022/12/03 16:21:06;;;;;;;34.30;16.40;;;3.50;99.90;;;;;;4947396;28;20505;-74
2022/12/03 16:23:33;;;;;;;37.67;18.03;;;3.50;99.90;;;;;;4946890;28;20465;-74
2022/12/03 16:26:00;;;;;;;38.23;17.40;;;3.50;99.90;;;;;;4947620;28;20456;-75
2022/12/03 16:28:27;;;;;;;33.83;16.90;;;3.50;99.90;;;;;;4947350;28;20460;-74
2022/12/03 16:30:53;;;;;;;37.27;18.90;;;3.50;99.90;;;;;;4947620;28;20484;-74
2022/12/03 16:33:20;;;;;;;31.33;15.53;;;3.50;99.90;;;;;;4947107;28;20461;-75
2022/12/03 16:35:48;;;;;;;36.50;17.03;;;3.50;99.90;;;;;;4946869;29;20457;-75
2022/12/03 16:38:15;;;;;;;29.87;15.90;;;3.50;99.90;;;;;;4947262;29;20465;-75
2022/12/03 16:40:42;;;;;;;33.17;15.80;;;3.40;99.90;;;;;;4947243;28;20477;-75
2022/12/03 16:43:09;;;;;;;37.00;17.50;;;3.40;99.90;;;;;;4957930;28;20464;-74
2022/12/03 16:46:01;;;;;;;35.00;17.07;;;3.40;99.90;;;;;;4966225;28;20488;-75
2022/12/03 16:48:28;;;;;;;38.37;18.33;;;3.50;99.90;;;;;;4966869;28;20548;-75
2022/12/03 16:50:57;;;;;;;43.10;19.60;;;3.50;99.90;;;;;;4966500;28;20920;-74
2022/12/03 16:53:23;;;;;;;43.77;20.00;;;3.40;99.90;;;;;;4965543;28;20972;-74
2022/12/03 16:55:50;;;;;;;44.27;22.67;;;3.40;99.90;;;;;;4966812;28;20467;-75
2022/12/03 16:58:20;;;;;;;39.50;20.40;;;3.40;99.90;;;;;;4966205;28;20825;-75
2022/12/03 17:00:47;;;;;;;36.87;18.33;;;3.40;99.90;;;;;;4966523;28;20495;-74
2022/12/03 17:03:13;;;;;;;39.77;20.00;;;3.40;99.90;;;;;;4967521;28;20467;-75
2022/12/03 17:05:40;;;;;;;46.87;20.87;;;3.40;99.90;;;;;;4970190;28;20452;-75
2022/12/03 17:08:08;;;;;;;43.00;20.40;;;3.40;99.90;;;;;;4970148;28;20464;-73
2022/12/03 17:10:35;;;;;;;40.97;20.33;;;3.40;99.90;;;;;;4968332;28;20457;-75
2022/12/03 17:13:02;;;;;;;41.90;20.70;;;3.30;99.90;;;;;;4968242;28;20448;-74
2022/12/03 17:15:29;;;;;;;39.30;20.20;;;3.30;99.90;;;;;;4969097;28;20452;-75
2022/12/03 17:17:56;;;;;;;41.50;22.37;;;3.30;99.90;;;;;;4969290;28;20808;-76
2022/12/03 17:20:22;;;;;;;43.23;18.80;;;3.30;99.90;;;;;;4969007;28;20452;-75
2022/12/03 17:22:49;;;;;;;45.37;19.30;;;3.30;99.90;;;;;;4968054;28;20491;-75
2022/12/03 17:25:18;;;;;;;47.60;20.40;;;3.30;99.90;;;;;;4968865;28;20488;-76
2022/12/03 17:27:44;;;;;;;41.00;20.17;;;3.30;99.90;;;;;;4969048;28;20460;-76
2022/12/03 17:30:12;;;;;;;44.10;18.97;;;3.30;99.90;;;;;;4969230;28;20466;-76
2022/12/03 17:32:38;;;;;;;41.40;19.73;;;3.30;99.90;;;;;;4967862;28;20476;-75
2022/12/03 17:35:06;;;;;;;43.87;20.90;;;3.30;99.90;;;;;;4968322;28;20848;-74
2022/12/03 17:37:33;;;;;;;38.60;19.70;;;3.20;99.90;;;;;;4968760;28;20494;-75
2022/12/03 17:40:00;;;;;;;43.93;20.97;;;3.20;99.90;;;;;;4968655;28;20456;-77
2022/12/03 17:42:28;;;;;;;38.97;18.70;;;3.20;99.90;;;;;;4968640;28;20492;-76
2022/12/03 17:44:55;;;;;;;45.57;22.53;;;3.20;99.90;;;;;;4969559;28;20543;-76
2022/12/03 17:47:21;;;;;;;47.60;22.97;;;3.20;99.90;;;;;;4968961;28;20452;-74
2022/12/03 17:49:48;;;;;;;42.10;20.73;;;3.20;99.90;;;;;;4968696;28;20456;-76